createdAt,value
2023-02-11T00:00:17.677Z,20.95
2023-02-11T00:02:47.762Z,29.42
2023-02-11T00:05:15.011Z,24.63
2023-02-11T00:07:43.432Z,22.90
2023-02-11T00:10:10.553Z,28.15
2023-02-11T00:12:40.946Z,25.73
2023-02-11T00:15:14.352Z,29.02
2023-02-11T00:17:41.437Z,24.20
2023-02-11T00:20:09.403Z,25.63
2023-02-11T00:22:44.464Z,22.23
2023-02-11T00:27:38.261Z,27.02
2023-02-11T00:30:05.965Z,24.90
2023-02-11T00:32:32.971Z,25.15
2023-02-11T00:35:00.000Z,27.25
2023-02-11T00:37:27.176Z,23.05
2023-02-11T00:39:55.756Z,26.45
2023-02-11T00:42:22.808Z,23.67
2023-02-11T00:44:49.867Z,21.40
2023-02-11T00:47:16.903Z,24.75
2023-02-11T00:49:44.061Z,19.98
2023-02-11T00:52:11.168Z,22.33
2023-02-11T00:54:38.416Z,21.95
2023-02-11T00:57:06.899Z,25.10
2023-02-11T00:59:33.964Z,21.40
2023-02-11T01:02:01.193Z,23.98
2023-02-11T01:04:28.281Z,25.02
2023-02-11T01:06:55.380Z,19.13
2023-02-11T01:09:22.429Z,21.27
2023-02-11T01:11:49.598Z,25.40
2023-02-11T01:14:17.978Z,17.25
2023-02-11T01:16:45.027Z,22.17
2023-02-11T01:19:12.410Z,20.17
2023-02-11T01:21:39.398Z,22.13
2023-02-11T01:24:06.834Z,20.60
2023-02-11T01:26:33.895Z,25.38
2023-02-11T01:29:00.921Z,18.83
2023-02-11T01:31:31.100Z,20.63
2023-02-11T01:33:59.031Z,25.48
2023-02-11T01:36:26.057Z,19.60
2023-02-11T01:38:53.056Z,21.77
2023-02-11T01:41:20.075Z,19.95
2023-02-11T01:43:54.527Z,22.48
2023-02-11T01:46:30.603Z,19.48
2023-02-11T01:49:02.767Z,19.20
2023-02-11T01:51:34.617Z,22.98
2023-02-11T01:54:03.774Z,24.10
2023-02-11T01:56:31.985Z,15.25
2023-02-11T01:59:11.750Z,17.35
2023-02-11T02:01:43.375Z,17.98
2023-02-11T02:04:11.600Z,17.90
2023-02-11T02:06:43.809Z,24.98
2023-02-11T02:09:20.206Z,17.27
2023-02-11T02:11:47.431Z,19.05
2023-02-11T02:14:14.576Z,17.67
2023-02-11T02:16:43.167Z,18.00
2023-02-11T02:20:03.184Z,20.20
2023-02-11T02:23:02.438Z,21.92
2023-02-11T02:25:48.625Z,18.27
2023-02-11T02:28:36.890Z,24.02
2023-02-11T02:31:25.133Z,22.08
2023-02-11T02:34:00.623Z,21.02
2023-02-11T02:36:34.991Z,19.48
2023-02-11T02:39:05.799Z,21.00
2023-02-11T02:41:34.776Z,19.98
2023-02-11T02:44:02.435Z,24.05
2023-02-11T02:46:32.564Z,20.83
2023-02-11T02:49:01.165Z,23.30
2023-02-11T02:51:42.789Z,19.52
2023-02-11T02:54:29.753Z,23.58
2023-02-11T02:57:06.932Z,24.02
2023-02-11T02:59:45.905Z,19.13
2023-02-11T03:02:18.449Z,21.55
2023-02-11T03:04:53.696Z,18.63
2023-02-11T03:07:27.790Z,19.88
2023-02-11T03:10:00.495Z,22.30
2023-02-11T03:12:30.096Z,21.98
2023-02-11T03:14:58.305Z,22.58
2023-02-11T03:17:27.330Z,20.65
2023-02-11T03:19:58.945Z,21.15
2023-02-11T03:22:30.684Z,21.38
2023-02-11T03:24:58.204Z,20.42
2023-02-11T03:27:30.590Z,21.33
2023-02-11T03:30:02.013Z,22.70
2023-02-11T03:32:32.381Z,24.23
2023-02-11T03:35:05.358Z,25.08
2023-02-11T03:37:36.581Z,21.95
2023-02-11T03:40:08.263Z,23.92
2023-02-11T03:42:41.375Z,20.60
2023-02-11T03:45:11.815Z,21.10
2023-02-11T03:47:43.578Z,22.88
2023-02-11T03:50:14.879Z,21.33
2023-02-11T03:52:42.845Z,23.63
2023-02-11T03:55:13.975Z,26.33
2023-02-11T03:57:41.145Z,29.85
2023-02-11T04:00:09.955Z,20.77
2023-02-11T04:02:39.189Z,31.77
2023-02-11T04:05:08.009Z,23.48
2023-02-11T04:07:36.501Z,24.63
2023-02-11T04:10:04.050Z,26.40
2023-02-11T04:12:31.116Z,21.58
2023-02-11T04:14:58.340Z,21.38
2023-02-11T04:17:31.589Z,23.67
2023-02-11T04:19:58.644Z,26.35
2023-02-11T04:22:25.816Z,23.52
2023-02-11T04:24:54.296Z,20.45
2023-02-11T04:27:21.412Z,26.77
2023-02-11T04:29:48.446Z,27.10
2023-02-11T04:32:15.662Z,24.15
2023-02-11T04:34:42.680Z,25.15
2023-02-11T04:37:09.925Z,24.25
2023-02-11T04:39:37.175Z,21.42
2023-02-11T04:42:05.746Z,26.08
2023-02-11T04:44:32.909Z,25.95
2023-02-11T04:47:00.081Z,32.30
2023-02-11T04:49:27.128Z,27.15
2023-02-11T04:51:54.179Z,24.13
2023-02-11T04:54:21.200Z,23.45
2023-02-11T04:56:48.418Z,27.17
2023-02-11T04:59:17.273Z,25.35
2023-02-11T05:01:44.321Z,31.15
2023-02-11T05:04:11.512Z,34.53
2023-02-11T05:06:39.435Z,31.17
2023-02-11T05:09:06.514Z,25.80
2023-02-11T05:11:36.485Z,24.85
2023-02-11T05:14:03.596Z,26.60
2023-02-11T05:16:32.184Z,28.63
2023-02-11T05:18:59.295Z,28.25
2023-02-11T05:21:26.376Z,26.17
2023-02-11T05:23:53.537Z,32.38
2023-02-11T05:26:20.522Z,32.40
2023-02-11T05:28:47.543Z,31.90
2023-02-11T05:31:15.037Z,28.75
2023-02-11T05:33:43.612Z,33.80
2023-02-11T05:36:12.886Z,27.33
2023-02-11T05:38:40.508Z,28.55
2023-02-11T05:41:07.825Z,30.02
2023-02-11T05:43:35.516Z,32.20
2023-02-11T05:46:03.452Z,30.52
2023-02-11T05:48:31.506Z,35.70
2023-02-11T05:51:00.083Z,38.95
2023-02-11T05:53:29.815Z,35.88
2023-02-11T05:55:56.958Z,34.08
2023-02-11T05:58:24.059Z,35.55
2023-02-11T06:00:53.998Z,33.00
2023-02-11T06:03:21.189Z,35.47
2023-02-11T06:05:48.812Z,30.80
2023-02-11T06:08:17.463Z,29.27
2023-02-11T06:10:45.361Z,33.05
2023-02-11T06:13:12.552Z,37.40
2023-02-11T06:15:39.799Z,38.20
2023-02-11T06:18:07.974Z,40.58
2023-02-11T06:20:34.995Z,33.63
2023-02-11T06:23:01.992Z,31.70
2023-02-11T06:25:30.482Z,35.03
2023-02-11T06:27:57.567Z,38.85
2023-02-11T06:30:24.664Z,37.92
2023-02-11T06:32:51.720Z,37.90
2023-02-11T06:35:18.893Z,38.80
2023-02-11T06:37:45.957Z,39.05
2023-02-11T06:40:13.628Z,39.00
2023-02-11T06:42:42.104Z,41.00
2023-02-11T06:45:10.236Z,37.42
2023-02-11T06:47:37.510Z,36.63
2023-02-11T06:50:05.592Z,38.90
2023-02-11T06:52:33.039Z,40.50
2023-02-11T06:55:00.209Z,37.90
2023-02-11T06:57:27.382Z,39.92
2023-02-11T06:59:55.942Z,44.30
2023-02-11T07:02:23.011Z,44.60
2023-02-11T07:04:50.140Z,41.15
2023-02-11T07:07:17.133Z,50.22
2023-02-11T07:09:44.274Z,41.78
2023-02-11T07:12:11.290Z,49.78
2023-02-11T07:14:38.381Z,50.95
2023-02-11T07:17:06.723Z,49.75
2023-02-11T07:19:33.714Z,53.35
2023-02-11T07:22:00.843Z,50.75
2023-02-11T07:24:27.889Z,58.50
2023-02-11T07:26:54.939Z,53.78
2023-02-11T07:29:22.158Z,50.28
2023-02-11T07:31:49.300Z,58.17
2023-02-11T07:34:17.771Z,53.05
2023-02-11T07:36:44.815Z,55.97
2023-02-11T07:39:12.046Z,53.72
2023-02-11T07:41:39.268Z,60.47
2023-02-11T07:44:06.369Z,59.55
2023-02-11T07:46:33.441Z,58.53
2023-02-11T07:49:00.565Z,62.53
2023-02-11T07:51:31.007Z,54.72
2023-02-11T07:53:59.543Z,51.80
2023-02-11T07:56:27.466Z,59.35
2023-02-11T07:58:55.419Z,59.58
2023-02-11T08:01:24.969Z,64.00
2023-02-11T08:03:52.682Z,64.63
2023-02-11T08:06:21.985Z,62.97
2023-02-11T08:08:51.049Z,62.97
2023-02-11T08:11:20.456Z,74.50
2023-02-11T08:13:47.753Z,68.03
2023-02-11T08:16:19.361Z,71.50
2023-02-11T08:18:47.007Z,61.35
2023-02-11T08:21:14.085Z,65.07
2023-02-11T08:23:42.496Z,68.28
2023-02-11T08:26:13.686Z,67.38
2023-02-11T08:28:42.219Z,64.93
2023-02-11T08:31:10.935Z,67.75
2023-02-11T08:33:38.325Z,63.75
2023-02-11T08:36:09.685Z,66.30
2023-02-11T08:38:36.736Z,76.25
2023-02-11T08:41:04.197Z,72.00
2023-02-11T08:43:32.614Z,67.30
2023-02-11T08:46:02.032Z,66.93
2023-02-11T08:48:30.104Z,68.03
2023-02-11T08:50:57.774Z,66.35
2023-02-11T08:53:25.288Z,68.28
2023-02-11T08:55:54.054Z,67.72
2023-02-11T08:58:22.762Z,74.43
2023-02-11T09:00:51.453Z,70.65
2023-02-11T09:03:18.724Z,74.32
2023-02-11T09:05:48.115Z,82.03
2023-02-11T09:08:15.255Z,74.22
2023-02-11T09:10:45.662Z,76.05
2023-02-11T09:13:12.718Z,75.00
2023-02-11T09:15:39.774Z,70.25
2023-02-11T09:18:08.146Z,81.45
2023-02-11T09:20:35.262Z,78.13
2023-02-11T09:23:02.360Z,73.85
2023-02-11T09:25:29.344Z,80.05
2023-02-11T09:27:56.320Z,76.53
2023-02-11T09:30:27.650Z,77.75
2023-02-11T09:32:54.657Z,79.72
2023-02-11T09:35:25.680Z,80.45
2023-02-11T09:37:52.809Z,87.40
2023-02-11T09:40:33.092Z,82.07
2023-02-11T09:43:04.376Z,82.35
2023-02-11T09:45:34.958Z,76.78
2023-02-11T09:48:06.460Z,79.18
2023-02-11T09:50:36.255Z,80.45
2023-02-11T09:53:08.187Z,80.22
2023-02-11T09:55:38.517Z,77.80
2023-02-11T09:58:12.111Z,85.15
2023-02-11T10:00:44.741Z,83.05
2023-02-11T10:03:47.593Z,78.18
2023-02-11T10:06:38.730Z,82.65
2023-02-11T10:09:32.018Z,82.75
2023-02-11T10:12:11.574Z,75.53
2023-02-11T10:15:12.798Z,82.72
2023-02-11T10:17:57.186Z,88.72
2023-02-11T10:20:36.483Z,88.00
2023-02-11T10:23:13.462Z,81.50
2023-02-11T10:25:45.395Z,81.95
2023-02-11T10:28:15.950Z,75.88
2023-02-11T10:30:49.644Z,79.85
2023-02-11T10:33:30.063Z,80.45
2023-02-11T10:35:57.113Z,78.35
2023-02-11T10:38:26.398Z,81.18
2023-02-11T10:40:53.546Z,77.10
2023-02-11T10:43:26.661Z,76.07
2023-02-11T10:45:55.344Z,77.72
2023-02-11T10:48:41.689Z,75.80
2023-02-11T10:51:15.869Z,76.28
2023-02-11T10:53:48.210Z,82.43
2023-02-11T10:56:26.636Z,74.43
2023-02-11T10:59:00.624Z,74.70
2023-02-11T11:01:43.883Z,74.78
2023-02-11T11:04:34.619Z,75.63
2023-02-11T11:07:12.953Z,70.20
2023-02-11T11:09:48.327Z,77.05
2023-02-11T11:12:26.782Z,73.10
2023-02-11T11:14:58.544Z,76.32
2023-02-11T11:17:25.838Z,78.25
2023-02-11T11:19:52.886Z,88.65
2023-02-11T11:22:22.003Z,77.18
2023-02-11T11:24:50.648Z,80.40
2023-02-11T11:27:20.156Z,82.03
2023-02-11T11:29:49.673Z,79.57
2023-02-11T11:32:21.117Z,72.70
2023-02-11T11:34:51.220Z,78.20
2023-02-11T11:37:23.362Z,72.68
2023-02-11T11:39:56.707Z,87.53
2023-02-11T11:45:24.417Z,82.90
2023-02-11T11:47:54.717Z,90.57
2023-02-11T11:50:29.126Z,86.65
2023-02-11T11:53:04.900Z,83.07
2023-02-11T11:55:39.343Z,95.40
2023-02-11T11:58:16.923Z,93.45
2023-02-11T12:00:52.466Z,126.53
2023-02-11T12:04:04.207Z,87.85
2023-02-11T12:06:41.280Z,83.97
2023-02-11T12:09:20.263Z,89.60
2023-02-11T12:12:10.841Z,80.47
2023-02-11T12:14:50.299Z,91.10
2023-02-11T12:17:33.422Z,80.80
2023-02-11T12:20:22.212Z,85.50
2023-02-11T12:23:00.528Z,89.00
2023-02-11T12:25:30.092Z,82.72
2023-02-11T12:28:12.305Z,90.00
2023-02-11T12:30:54.331Z,98.53
2023-02-11T12:33:34.998Z,90.57
2023-02-11T12:36:09.910Z,87.97
2023-02-11T12:41:32.700Z,79.10
2023-02-11T12:44:01.889Z,89.72
2023-02-11T12:46:36.877Z,84.72
2023-02-11T12:52:02.966Z,83.95
2023-02-11T12:54:34.267Z,90.25
2023-02-11T12:57:06.165Z,93.38
2023-02-11T12:59:47.642Z,88.18
2023-02-11T13:02:27.577Z,89.18
2023-02-11T13:04:57.434Z,83.63
2023-02-11T13:07:30.888Z,84.60
2023-02-11T13:10:03.623Z,84.65
2023-02-11T13:12:33.614Z,90.28
2023-02-11T13:15:12.823Z,82.03
2023-02-11T13:17:46.062Z,85.80
2023-02-11T13:20:23.951Z,81.38
2023-02-11T13:22:59.313Z,89.20
2023-02-11T13:25:31.485Z,78.20
2023-02-11T13:28:05.923Z,88.45
2023-02-11T13:30:35.960Z,76.80
2023-02-11T13:33:22.112Z,79.18
2023-02-11T13:36:17.353Z,79.47
2023-02-11T13:38:57.342Z,80.88
2023-02-11T13:41:28.879Z,82.63
2023-02-11T13:44:03.090Z,85.25
2023-02-11T13:46:54.182Z,84.38
2023-02-11T13:49:24.639Z,82.05
2023-02-11T13:51:55.867Z,76.68
2023-02-11T13:54:37.760Z,77.93
2023-02-11T13:57:36.257Z,74.88
2023-02-11T14:00:26.173Z,83.78
2023-02-11T14:03:31.626Z,80.65
2023-02-11T14:06:15.777Z,77.50
2023-02-11T14:09:06.881Z,79.57
2023-02-11T14:11:46.928Z,79.50
2023-02-11T14:14:20.567Z,83.35
2023-02-11T14:17:21.097Z,79.25
2023-02-11T14:19:49.065Z,77.00
2023-02-11T14:22:20.339Z,74.93
2023-02-11T14:24:53.895Z,75.43
2023-02-11T14:27:36.251Z,79.28
2023-02-11T14:30:31.897Z,73.32
2023-02-11T14:35:44.052Z,69.72
2023-02-11T14:38:20.714Z,76.60
2023-02-11T14:40:56.734Z,78.70
2023-02-11T14:43:29.125Z,80.57
2023-02-11T14:45:58.484Z,78.65
2023-02-11T14:48:30.920Z,75.57
2023-02-11T14:51:02.681Z,79.10
2023-02-11T14:53:33.227Z,75.32
2023-02-11T14:56:00.674Z,70.88
2023-02-11T14:58:34.965Z,96.65
2023-02-11T15:01:04.388Z,79.60
2023-02-11T15:03:34.283Z,75.97
2023-02-11T15:06:06.158Z,85.32
2023-02-11T15:08:36.591Z,78.60
2023-02-11T15:11:10.184Z,90.72
2023-02-11T15:13:37.960Z,87.35
2023-02-11T15:16:10.197Z,84.00
2023-02-11T15:18:40.421Z,81.13
2023-02-11T15:21:08.372Z,83.72
2023-02-11T15:23:37.174Z,80.25
2023-02-11T15:26:13.188Z,80.07
2023-02-11T15:28:47.243Z,87.85
2023-02-11T15:31:15.830Z,86.47
2023-02-11T15:33:42.935Z,85.63
2023-02-11T15:36:11.820Z,84.90
2023-02-11T15:38:40.821Z,84.53
2023-02-11T15:41:08.912Z,91.30
2023-02-11T15:43:44.365Z,80.10
2023-02-11T15:46:15.192Z,81.00
2023-02-11T15:48:44.327Z,76.03
2023-02-11T15:51:19.787Z,79.93
2023-02-11T15:53:52.824Z,85.72
2023-02-11T15:56:24.215Z,84.38
2023-02-11T15:58:53.674Z,82.95
2023-02-11T16:01:33.147Z,82.22
2023-02-11T16:04:01.352Z,78.55
2023-02-11T16:06:37.195Z,75.80
2023-02-11T16:09:21.594Z,73.78
2023-02-11T16:11:56.450Z,79.33
2023-02-11T16:14:30.329Z,76.45
2023-02-11T16:17:00.016Z,78.70
2023-02-11T16:19:28.763Z,92.55
2023-02-11T16:21:58.242Z,88.65
2023-02-11T16:24:29.612Z,78.47
2023-02-11T16:26:59.824Z,71.82
2023-02-11T16:29:28.736Z,74.15
2023-02-11T16:32:06.976Z,78.47
2023-02-11T16:34:34.133Z,75.35
2023-02-11T16:37:04.223Z,72.63
2023-02-11T16:39:32.969Z,72.20
2023-02-11T16:42:00.617Z,74.60
2023-02-11T16:44:27.674Z,96.97
2023-02-11T16:46:55.640Z,71.05
2023-02-11T16:49:25.502Z,68.85
2023-02-11T16:51:55.034Z,69.50
2023-02-11T16:54:22.475Z,68.20
2023-02-11T16:56:50.888Z,77.00
2023-02-11T16:59:18.495Z,69.40
2023-02-11T17:01:46.853Z,77.97
2023-02-11T17:04:19.295Z,70.70
2023-02-11T17:06:46.358Z,75.47
2023-02-11T17:09:18.175Z,74.97
2023-02-11T17:11:45.164Z,71.68
2023-02-11T17:14:13.550Z,74.60
2023-02-11T17:16:40.991Z,75.53
2023-02-11T17:19:09.622Z,76.35
2023-02-11T17:21:36.583Z,75.40
2023-02-11T17:24:03.837Z,74.20
2023-02-11T17:26:30.855Z,75.03
2023-02-11T17:28:57.900Z,74.47
2023-02-11T17:31:26.444Z,76.78
2023-02-11T17:33:53.536Z,72.47
2023-02-11T17:36:20.627Z,75.43
2023-02-11T17:38:47.861Z,74.70
2023-02-11T17:41:15.014Z,80.10
2023-02-11T17:43:42.058Z,79.32
2023-02-11T17:46:09.968Z,78.22
2023-02-11T17:48:39.255Z,71.63
2023-02-11T17:51:20.195Z,77.15
2023-02-11T17:53:47.280Z,84.00
2023-02-11T17:56:14.260Z,82.57
2023-02-11T17:58:41.358Z,81.53
2023-02-11T18:01:08.911Z,76.25
2023-02-11T18:03:36.018Z,76.82
2023-02-11T18:06:06.575Z,82.80
2023-02-11T18:08:34.380Z,84.35
2023-02-11T18:11:01.641Z,82.63
2023-02-11T18:13:29.249Z,78.82
2023-02-11T18:16:01.794Z,80.13
2023-02-11T18:18:28.791Z,86.45
2023-02-11T18:20:56.786Z,83.93
2023-02-11T18:23:25.783Z,87.15
2023-02-11T18:25:53.116Z,87.20
2023-02-11T18:28:20.391Z,90.93
2023-02-11T18:30:47.514Z,95.85
2023-02-11T18:33:14.615Z,93.00
2023-02-11T18:35:42.619Z,91.97
2023-02-11T18:38:10.324Z,91.00
2023-02-11T18:40:41.079Z,94.55
2023-02-11T18:43:08.185Z,92.25
2023-02-11T18:45:35.579Z,98.05
2023-02-11T18:48:02.642Z,93.63
2023-02-11T18:50:29.638Z,94.05
2023-02-11T18:52:56.651Z,96.95
2023-02-11T18:55:23.798Z,92.82
2023-02-11T18:57:52.379Z,102.88
2023-02-11T19:00:20.839Z,95.45
2023-02-11T19:02:48.027Z,104.18
2023-02-11T19:05:15.309Z,106.82
2023-02-11T19:07:42.319Z,93.05
2023-02-11T19:10:09.915Z,105.65
2023-02-11T19:12:37.902Z,104.38
2023-02-11T19:15:07.536Z,101.07
2023-02-11T19:17:34.651Z,105.60
2023-02-11T19:20:01.771Z,92.85
2023-02-11T19:22:28.842Z,93.47
2023-02-11T19:24:55.905Z,91.40
2023-02-11T19:27:23.117Z,97.55
2023-02-11T19:29:50.162Z,96.30
2023-02-11T19:32:18.875Z,94.07
2023-02-11T19:34:45.833Z,107.97
2023-02-11T19:37:13.188Z,94.60
2023-02-11T19:39:40.834Z,98.30
2023-02-11T19:42:07.926Z,99.38
2023-02-11T19:44:34.943Z,90.35
2023-02-11T19:47:01.933Z,101.38
2023-02-11T19:49:30.379Z,94.18
2023-02-11T19:51:57.570Z,90.10
2023-02-11T19:54:25.152Z,92.07
2023-02-11T19:56:52.919Z,94.95
2023-02-11T19:59:20.645Z,98.07
2023-02-11T20:01:47.881Z,96.47
2023-02-11T20:04:15.488Z,105.72
2023-02-11T20:06:44.447Z,96.28
2023-02-11T20:09:13.862Z,99.25
2023-02-11T20:11:42.085Z,99.45
2023-02-11T20:14:11.539Z,100.63
2023-02-11T20:16:48.032Z,101.85
2023-02-11T20:19:18.571Z,105.28
2023-02-11T20:21:48.808Z,104.07
2023-02-11T20:24:16.905Z,111.20
2023-02-11T20:26:44.377Z,105.65
2023-02-11T20:29:11.437Z,105.80
2023-02-11T20:31:38.516Z,105.07
2023-02-11T20:34:05.714Z,105.78
2023-02-11T20:36:34.194Z,112.97
2023-02-11T20:39:04.385Z,111.05
2023-02-11T20:41:34.029Z,110.47
2023-02-11T20:44:02.712Z,107.03
2023-02-11T20:46:32.104Z,105.55
2023-02-11T20:48:59.988Z,102.22
2023-02-11T20:51:30.126Z,109.72
2023-02-11T20:53:58.083Z,109.65
2023-02-11T20:56:28.660Z,108.68
2023-02-11T20:58:57.297Z,103.45
2023-02-11T21:01:26.296Z,106.53
2023-02-11T21:03:55.798Z,112.03
2023-02-11T21:06:24.292Z,105.13
2023-02-11T21:08:51.529Z,104.03
2023-02-11T21:11:18.666Z,102.82
2023-02-11T21:13:47.069Z,111.10
2023-02-11T21:16:15.976Z,104.68
2023-02-11T21:18:43.628Z,104.60
2023-02-11T21:21:10.685Z,108.45
2023-02-11T21:23:37.899Z,107.53
2023-02-11T21:26:05.593Z,108.15
2023-02-11T21:28:32.779Z,110.10
2023-02-11T21:31:04.694Z,109.35
2023-02-11T21:33:32.422Z,112.10
2023-02-11T21:36:01.682Z,106.90
2023-02-11T21:38:29.096Z,109.22
2023-02-11T21:41:01.948Z,108.95
2023-02-11T21:43:28.968Z,101.25
2023-02-11T21:45:56.501Z,105.07
2023-02-11T21:48:25.140Z,114.13
2023-02-11T21:50:52.749Z,113.22
2023-02-11T21:53:19.862Z,106.25
2023-02-11T21:55:46.859Z,109.32
2023-02-11T21:58:14.056Z,112.35
2023-02-11T22:00:41.432Z,109.78
2023-02-11T22:03:08.579Z,109.13
2023-02-11T22:05:40.133Z,113.10
2023-02-11T22:08:07.225Z,106.50
2023-02-11T22:10:34.217Z,106.22
2023-02-11T22:13:01.404Z,119.85
2023-02-11T22:15:28.495Z,110.90
2023-02-11T22:17:55.436Z,103.82
2023-02-11T22:20:22.550Z,116.85
2023-02-11T22:22:50.892Z,108.22
2023-02-11T22:25:18.020Z,101.55
2023-02-11T22:27:45.024Z,106.70
2023-02-11T22:30:12.991Z,100.82
2023-02-11T22:32:39.997Z,111.65
2023-02-11T22:35:07.368Z,102.35
2023-02-11T22:37:34.449Z,107.60
2023-02-11T22:40:02.844Z,103.43
2023-02-11T22:42:29.866Z,104.70
2023-02-11T22:44:56.943Z,106.10
2023-02-11T22:47:23.999Z,105.53
2023-02-11T22:49:51.161Z,113.22
2023-02-11T22:52:18.154Z,104.20
2023-02-11T22:54:45.312Z,105.82
2023-02-11T22:57:13.928Z,103.90
2023-02-11T22:59:40.948Z,105.57
2023-02-11T23:02:08.043Z,98.93
2023-02-11T23:04:35.275Z,102.72
2023-02-11T23:07:02.268Z,99.75
2023-02-11T23:09:29.278Z,103.82
2023-02-11T23:11:56.251Z,105.50
2023-02-11T23:14:24.708Z,101.32
2023-02-11T23:16:51.836Z,106.63
2023-02-11T23:19:19.261Z,106.00
2023-02-11T23:21:46.499Z,110.55
2023-02-11T23:24:14.590Z,105.30
2023-02-11T23:26:43.077Z,100.97
2023-02-11T23:29:10.916Z,99.75
2023-02-11T23:31:41.594Z,108.00
2023-02-11T23:34:08.861Z,95.70
2023-02-11T23:36:35.961Z,108.55
2023-02-11T23:39:03.580Z,102.80
2023-02-11T23:41:30.820Z,100.90
2023-02-11T23:43:58.179Z,100.72
2023-02-11T23:46:26.617Z,101.32
2023-02-11T23:48:55.218Z,106.78
2023-02-11T23:51:22.900Z,115.65
2023-02-11T23:53:50.895Z,123.28
2023-02-11T23:56:19.890Z,132.07
2023-02-11T23:58:48.544Z,134.25
